createdAt,value
2018-05-16T00:00:09.966Z,0
2018-05-16T00:01:09.993Z,0
2018-05-16T00:02:10.327Z,0
2018-05-16T00:03:10.076Z,0
2018-05-16T00:04:10.062Z,0
2018-05-16T00:05:10.379Z,0
2018-05-16T00:06:10.393Z,0
2018-05-16T00:07:10.405Z,0
2018-05-16T00:08:10.443Z,0
2018-05-16T00:09:10.191Z,0
2018-05-16T00:10:10.183Z,0
2018-05-16T00:11:10.490Z,0
2018-05-16T00:12:10.238Z,0
2018-05-16T00:13:09.997Z,0
2018-05-16T00:14:10.570Z,0
2018-05-16T00:15:10.020Z,0
2018-05-16T00:16:10.607Z,0
2018-05-16T00:17:10.635Z,0
2018-05-16T00:18:10.395Z,0
2018-05-16T00:19:10.390Z,0
2018-05-16T00:20:10.131Z,0
2018-05-16T00:21:10.439Z,0
2018-05-16T00:22:10.184Z,0
2018-05-16T00:23:10.220Z,0
2018-05-16T00:24:10.753Z,0
2018-05-16T00:25:10.538Z,0
2018-05-16T00:26:10.853Z,0
2018-05-16T00:27:10.559Z,0
2018-05-16T00:28:10.820Z,0
2018-05-16T00:29:10.321Z,0
2018-05-16T00:30:10.636Z,0
2018-05-16T00:31:10.896Z,0
2018-05-16T00:32:10.644Z,0
2018-05-16T00:33:10.672Z,0
2018-05-16T00:34:10.787Z,0
2018-05-16T00:35:10.738Z,0
2018-05-16T00:36:10.762Z,0
2018-05-16T00:37:11.091Z,0
2018-05-16T00:38:11.038Z,0
2018-05-16T00:39:11.059Z,0
2018-05-16T00:40:10.801Z,0
2018-05-16T00:41:10.569Z,0
2018-05-16T00:42:10.883Z,0
2018-05-16T00:43:10.889Z,0
2018-05-16T00:44:10.626Z,0
2018-05-16T00:45:10.380Z,0
2018-05-16T00:46:10.968Z,0
2018-05-16T00:47:11.267Z,0
2018-05-16T00:48:11.267Z,0
2018-05-16T00:49:11.088Z,0
2018-05-16T00:50:10.769Z,0
2018-05-16T00:51:11.052Z,0
2018-05-16T00:52:11.348Z,0
2018-05-16T00:53:10.834Z,0
2018-05-16T00:54:10.860Z,0
2018-05-16T00:55:10.847Z,0
2018-05-16T00:56:11.424Z,0
2018-05-16T00:57:10.894Z,0
2018-05-16T00:58:11.481Z,0
2018-05-16T00:59:11.230Z,0
2018-05-16T01:00:10.704Z,0
2018-05-16T01:01:11.266Z,0
2018-05-16T01:02:10.737Z,0
2018-05-16T01:03:11.010Z,0
2018-05-16T01:04:11.295Z,0
2018-05-16T01:05:11.599Z,0
2018-05-16T01:06:11.089Z,0
2018-05-16T01:07:11.369Z,0
2018-05-16T01:08:11.677Z,0
2018-05-16T01:09:11.405Z,0
2018-05-16T01:10:11.153Z,0
2018-05-16T01:11:11.753Z,0
2018-05-16T01:12:11.470Z,0
2018-05-16T01:13:11.758Z,0
2018-05-16T01:14:11.515Z,0
2018-05-16T01:15:11.892Z,0
2018-05-16T01:16:11.822Z,0
2018-05-16T01:17:11.571Z,0
2018-05-16T01:18:11.603Z,0
2018-05-16T01:19:11.900Z,0
2018-05-16T01:20:11.920Z,0
2018-05-16T01:21:11.668Z,0
2018-05-16T01:22:11.934Z,0
2018-05-16T01:23:11.989Z,0
2018-05-16T01:24:11.470Z,0
2018-05-16T01:25:11.731Z,0
2018-05-16T01:26:11.774Z,0
2018-05-16T01:27:12.050Z,0
2018-05-16T01:28:11.807Z,0
2018-05-16T01:29:12.085Z,0
2018-05-16T01:30:12.172Z,0
2018-05-16T01:31:12.108Z,0
2018-05-16T01:32:11.909Z,0
2018-05-16T01:33:11.904Z,0
2018-05-16T01:34:11.935Z,0
2018-05-16T01:35:11.669Z,0
2018-05-16T01:36:11.959Z,0
2018-05-16T01:37:11.972Z,0
2018-05-16T01:38:12.282Z,0
2018-05-16T01:39:12.021Z,0
2018-05-16T01:40:12.446Z,0
2018-05-16T01:41:12.084Z,0
2018-05-16T01:42:12.356Z,0
2018-05-16T01:43:12.389Z,0
2018-05-16T01:44:12.115Z,0
2018-05-16T01:45:12.429Z,0
2018-05-16T01:46:12.163Z,0
2018-05-16T01:47:11.930Z,0
2018-05-16T01:48:12.503Z,0
2018-05-16T01:49:12.498Z,0
2018-05-16T01:50:12.241Z,0
2018-05-16T01:51:12.275Z,0
2018-05-16T01:52:12.363Z,0
2018-05-16T01:53:12.322Z,0
2018-05-16T01:54:12.591Z,0
2018-05-16T01:55:12.399Z,0
2018-05-16T01:56:12.350Z,0
2018-05-16T01:57:12.672Z,0
2018-05-16T01:58:12.401Z,0
2018-05-16T01:59:12.705Z,0
2018-05-16T02:00:12.449Z,0
2018-05-16T02:01:12.713Z,0
2018-05-16T02:02:12.755Z,0
2018-05-16T02:03:12.773Z,0
2018-05-16T02:04:12.808Z,0
2018-05-16T02:05:12.556Z,0
2018-05-16T02:06:12.312Z,0
2018-05-16T02:07:12.835Z,0
2018-05-16T02:08:12.080Z,0
2018-05-16T02:09:12.085Z,0
2018-05-16T02:10:12.936Z,0
2018-05-16T02:11:12.677Z,0
2018-05-16T02:12:12.695Z,0
2018-05-16T02:13:12.736Z,0
2018-05-16T02:14:12.992Z,0
2018-05-16T02:15:13.060Z,0
2018-05-16T02:16:13.044Z,0
2018-05-16T02:17:12.789Z,0
2018-05-16T02:18:12.793Z,0
2018-05-16T02:19:13.134Z,0
2018-05-16T02:20:13.122Z,0
2018-05-16T02:21:13.146Z,0
2018-05-16T02:22:13.161Z,0
2018-05-16T02:23:13.166Z,0
2018-05-16T02:24:13.199Z,0
2018-05-16T02:25:12.974Z,0
2018-05-16T02:26:13.234Z,0
2018-05-16T02:27:12.707Z,0
2018-05-16T02:28:13.285Z,0
2018-05-16T02:29:13.293Z,0
2018-05-16T02:30:13.080Z,0
2018-05-16T02:31:12.803Z,0
2018-05-16T02:32:13.380Z,0
2018-05-16T02:33:13.118Z,0
2018-05-16T02:34:13.146Z,0
2018-05-16T02:35:13.433Z,0
2018-05-16T02:36:12.910Z,0
2018-05-16T02:37:13.494Z,0
2018-05-16T02:38:13.493Z,0
2018-05-16T02:39:13.510Z,0
2018-05-16T02:40:13.534Z,0
2018-05-16T02:41:13.277Z,0
2018-05-16T02:42:13.282Z,0
2018-05-16T02:43:13.051Z,0
2018-05-16T02:44:13.347Z,0
2018-05-16T02:45:13.608Z,0
2018-05-16T02:46:13.376Z,0
2018-05-16T02:47:13.408Z,0
2018-05-16T02:48:13.690Z,0
2018-05-16T02:49:13.450Z,0
2018-05-16T02:50:13.440Z,0
2018-05-16T02:51:13.482Z,0
2018-05-16T02:52:13.791Z,0
2018-05-16T02:53:13.818Z,0
2018-05-16T02:54:13.284Z,0
2018-05-16T02:55:13.842Z,0
2018-05-16T02:56:13.589Z,0
2018-05-16T02:57:13.613Z,0
2018-05-16T02:58:13.879Z,0
2018-05-16T02:59:13.094Z,0
2018-05-16T03:00:13.939Z,0
2018-05-16T03:01:13.657Z,0
2018-05-16T03:02:13.697Z,0
2018-05-16T03:03:14.017Z,4
2018-05-16T03:04:13.470Z,4
2018-05-16T03:05:13.748Z,0
2018-05-16T03:06:13.777Z,0
2018-05-16T03:07:13.542Z,0
2018-05-16T03:08:13.561Z,0
2018-05-16T03:09:13.830Z,4
2018-05-16T03:10:13.871Z,4
2018-05-16T03:11:13.870Z,4
2018-05-16T03:12:13.906Z,4
2018-05-16T03:13:13.926Z,4
2018-05-16T03:14:14.210Z,4
2018-05-16T03:15:14.228Z,4
2018-05-16T03:16:14.269Z,4
2018-05-16T03:17:14.013Z,4
2018-05-16T03:18:14.031Z,8
2018-05-16T03:19:13.789Z,8
2018-05-16T03:20:14.052Z,8
2018-05-16T03:21:14.082Z,12
2018-05-16T03:22:14.192Z,12
2018-05-16T03:23:14.389Z,16
2018-05-16T03:24:14.434Z,12
2018-05-16T03:25:14.161Z,20
2018-05-16T03:26:14.233Z,20
2018-05-16T03:27:14.458Z,20
2018-05-16T03:28:13.931Z,20
2018-05-16T03:29:14.518Z,24
2018-05-16T03:30:14.270Z,28
2018-05-16T03:31:14.292Z,28
2018-05-16T03:32:14.300Z,28
2018-05-16T03:33:14.342Z,28
2018-05-16T03:34:14.341Z,32
2018-05-16T03:35:14.623Z,44
2018-05-16T03:36:14.138Z,32
2018-05-16T03:37:14.134Z,28
2018-05-16T03:38:14.410Z,28
2018-05-16T03:39:14.176Z,32
2018-05-16T03:40:14.922Z,36
2018-05-16T03:41:14.761Z,40
2018-05-16T03:42:14.768Z,36
2018-05-16T03:43:14.515Z,36
2018-05-16T03:44:14.814Z,48
2018-05-16T03:45:14.580Z,40
2018-05-16T03:46:14.874Z,36
2018-05-16T03:47:14.874Z,36
2018-05-16T03:48:14.867Z,36
2018-05-16T03:49:14.638Z,32
2018-05-16T03:50:14.927Z,36
2018-05-16T03:51:14.705Z,32
2018-05-16T03:52:14.977Z,36
2018-05-16T03:53:14.727Z,40
2018-05-16T03:54:14.462Z,44
2018-05-16T03:55:15.039Z,40
2018-05-16T03:56:14.800Z,44
2018-05-16T03:57:14.527Z,52
2018-05-16T03:58:15.103Z,60
2018-05-16T03:59:14.851Z,60
2018-05-16T04:00:15.144Z,80
2018-05-16T04:01:15.154Z,104
2018-05-16T04:02:15.324Z,104
2018-05-16T04:03:15.185Z,148
2018-05-16T04:04:14.946Z,172
2018-05-16T04:05:15.258Z,164
2018-05-16T04:06:14.993Z,136
2018-05-16T04:07:15.264Z,152
2018-05-16T04:08:14.763Z,128
2018-05-16T04:09:15.321Z,144
2018-05-16T04:10:15.351Z,132
2018-05-16T04:11:15.399Z,76
2018-05-16T04:12:15.390Z,132
2018-05-16T04:13:15.117Z,160
2018-05-16T04:14:15.419Z,168
2018-05-16T04:15:15.439Z,156
2018-05-16T04:16:15.459Z,208
2018-05-16T04:17:15.468Z,184
2018-05-16T04:18:15.489Z,172
2018-05-16T04:19:15.516Z,176
2018-05-16T04:20:14.999Z,160
2018-05-16T04:21:15.624Z,164
2018-05-16T04:22:15.313Z,176
2018-05-16T04:23:15.335Z,160
2018-05-16T04:24:15.353Z,172
2018-05-16T04:25:15.361Z,168
2018-05-16T04:26:15.374Z,156
2018-05-16T04:27:15.685Z,180
2018-05-16T04:28:15.445Z,204
2018-05-16T04:29:15.707Z,216
2018-05-16T04:30:15.453Z,204
2018-05-16T04:31:15.465Z,184
2018-05-16T04:32:15.806Z,232
2018-05-16T04:33:15.772Z,276
2018-05-16T04:34:15.833Z,244
2018-05-16T04:35:15.587Z,224
2018-05-16T04:36:15.897Z,232
2018-05-16T04:37:15.861Z,256
2018-05-16T04:38:15.878Z,244
2018-05-16T04:39:15.629Z,232
2018-05-16T04:40:15.964Z,208
2018-05-16T04:41:15.671Z,224
2018-05-16T04:42:15.435Z,236
2018-05-16T04:43:15.746Z,268
2018-05-16T04:44:16.048Z,264
2018-05-16T04:45:16.047Z,332
2018-05-16T04:46:16.121Z,288
2018-05-16T04:47:15.885Z,344
2018-05-16T04:48:15.836Z,336
2018-05-16T04:49:15.837Z,360
2018-05-16T04:50:16.117Z,356
2018-05-16T04:51:16.170Z,396
2018-05-16T04:52:15.633Z,452
2018-05-16T04:53:15.674Z,400
2018-05-16T04:54:15.957Z,276
2018-05-16T04:55:15.984Z,332
2018-05-16T04:56:16.256Z,356
2018-05-16T04:57:16.301Z,348
2018-05-16T04:58:16.052Z,360
2018-05-16T04:59:15.775Z,328
2018-05-16T05:00:16.077Z,336
2018-05-16T05:01:16.351Z,420
2018-05-16T05:02:15.833Z,356
2018-05-16T05:03:16.388Z,332
2018-05-16T05:04:16.423Z,416
2018-05-16T05:05:16.190Z,468
2018-05-16T05:06:16.253Z,344
2018-05-16T05:07:16.488Z,344
2018-05-16T05:08:16.494Z,424
2018-05-16T05:09:16.241Z,296
2018-05-16T05:10:16.023Z,396
2018-05-16T05:11:16.571Z,468
2018-05-16T05:12:16.297Z,400
2018-05-16T05:13:16.612Z,412
2018-05-16T05:14:16.628Z,472
2018-05-16T05:16:16.397Z,408
2018-05-16T05:17:16.716Z,364
2018-05-16T05:18:16.742Z,420
2018-05-16T05:19:16.558Z,448
2018-05-16T05:20:16.741Z,548
2018-05-16T05:21:16.753Z,568
2018-05-16T05:22:16.567Z,688
2018-05-16T05:23:16.542Z,760
2018-05-16T05:24:17.203Z,884
2018-05-16T05:25:16.678Z,1024
2018-05-16T05:26:16.894Z,936
2018-05-16T05:27:16.621Z,936
2018-05-16T05:28:16.905Z,1236
2018-05-16T05:29:16.929Z,1384
2018-05-16T05:30:16.873Z,1316
2018-05-16T05:31:16.434Z,1108
2018-05-16T05:32:16.468Z,1072
2018-05-16T05:33:17.010Z,1140
2018-05-16T05:34:17.045Z,844
2018-05-16T05:35:17.074Z,908
2018-05-16T05:36:17.068Z,812
2018-05-16T05:37:16.839Z,880
2018-05-16T05:38:16.838Z,664
2018-05-16T05:39:16.886Z,608
2018-05-16T05:40:16.644Z,604
2018-05-16T05:41:17.167Z,484
2018-05-16T05:42:17.179Z,440
2018-05-16T05:43:17.279Z,416
2018-05-16T05:44:17.190Z,564
2018-05-16T05:45:16.717Z,512
2018-05-16T05:46:17.279Z,568
2018-05-16T05:47:17.320Z,580
2018-05-16T05:48:17.044Z,760
2018-05-16T05:49:17.621Z,680
2018-05-16T05:50:17.332Z,756
2018-05-16T05:51:17.396Z,772
2018-05-16T05:52:17.453Z,724
2018-05-16T05:53:17.168Z,716
2018-05-16T05:54:16.931Z,700
2018-05-16T05:55:17.458Z,868
2018-05-16T05:56:17.499Z,736
2018-05-16T05:57:17.530Z,772
2018-05-16T05:58:16.978Z,768
2018-05-16T05:59:17.552Z,712
2018-05-16T06:00:17.401Z,644
2018-05-16T06:01:17.304Z,648
2018-05-16T06:02:17.586Z,616
2018-05-16T06:03:16.803Z,596
2018-05-16T06:04:17.382Z,656
2018-05-16T06:05:17.421Z,568
2018-05-16T06:06:17.678Z,540
2018-05-16T06:07:17.776Z,496
2018-05-16T06:08:17.437Z,420
2018-05-16T06:09:17.756Z,360
2018-05-16T06:10:17.529Z,352
2018-05-16T06:11:17.528Z,516
2018-05-16T06:12:17.808Z,456
2018-05-16T06:13:17.569Z,480
2018-05-16T06:14:17.570Z,572
2018-05-16T06:15:17.855Z,976
2018-05-16T06:16:17.595Z,1176
2018-05-16T06:17:17.639Z,1152
2018-05-16T06:18:17.943Z,952
2018-05-16T06:19:17.965Z,1200
2018-05-16T06:20:17.990Z,912
2018-05-16T06:21:17.732Z,676
2018-05-16T06:22:17.799Z,676
2018-05-16T06:23:18.004Z,728
2018-05-16T06:24:17.769Z,672
2018-05-16T06:25:18.115Z,720
2018-05-16T06:26:17.826Z,688
2018-05-16T06:27:18.253Z,664
2018-05-16T06:28:18.181Z,588
2018-05-16T06:29:17.881Z,564
2018-05-16T06:30:17.631Z,472
2018-05-16T06:31:18.206Z,440
2018-05-16T06:32:17.952Z,384
2018-05-16T06:33:18.236Z,368
2018-05-16T06:34:18.310Z,320
2018-05-16T06:35:18.294Z,324
2018-05-16T06:36:18.281Z,392
2018-05-16T06:37:18.339Z,392
2018-05-16T06:38:18.327Z,316
2018-05-16T06:39:18.727Z,292
2018-05-16T06:40:18.504Z,300
2018-05-16T06:41:18.394Z,336
2018-05-16T06:42:18.534Z,396
2018-05-16T06:43:18.459Z,380
2018-05-16T06:44:18.469Z,588
2018-05-16T06:45:18.216Z,636
2018-05-16T06:46:18.498Z,656
2018-05-16T06:47:18.521Z,692
2018-05-16T06:48:18.553Z,828
2018-05-16T06:49:18.312Z,1056
2018-05-16T06:50:18.319Z,1244
2018-05-16T06:51:18.316Z,1228
2018-05-16T06:52:18.624Z,1328
2018-05-16T06:53:18.630Z,1564
2018-05-16T06:54:18.140Z,1540
2018-05-16T06:55:18.417Z,968
2018-05-16T06:56:18.769Z,1308
2018-05-16T06:57:18.760Z,1424
2018-05-16T06:58:18.759Z,1236
2018-05-16T06:59:18.785Z,1400
2018-05-16T07:00:18.819Z,1464
2018-05-16T07:01:18.262Z,1560
2018-05-16T07:02:18.314Z,1216
2018-05-16T07:03:18.835Z,796
2018-05-16T07:04:18.827Z,680
2018-05-16T07:05:18.635Z,780
2018-05-16T07:06:18.940Z,700
2018-05-16T07:07:18.951Z,788
2018-05-16T07:08:18.948Z,828
2018-05-16T07:09:18.991Z,736
2018-05-16T07:10:18.465Z,788
2018-05-16T07:11:18.521Z,740
2018-05-16T07:12:19.038Z,568
2018-05-16T07:13:19.119Z,756
2018-05-16T07:14:18.813Z,628
2018-05-16T07:15:19.095Z,544
2018-05-16T07:16:19.132Z,572
2018-05-16T07:17:19.126Z,704
2018-05-16T07:18:19.150Z,672
2018-05-16T07:19:18.927Z,912
2018-05-16T07:20:19.221Z,852
2018-05-16T07:21:18.683Z,668
2018-05-16T07:22:18.980Z,492
2018-05-16T07:23:19.313Z,444
2018-05-16T07:24:19.314Z,396
2018-05-16T07:25:18.779Z,364
2018-05-16T07:26:19.334Z,340
2018-05-16T07:27:19.102Z,340
2018-05-16T07:28:18.845Z,412
2018-05-16T07:29:19.429Z,424
2018-05-16T07:30:18.893Z,424
2018-05-16T07:31:19.426Z,460
2018-05-16T07:32:19.218Z,520
2018-05-16T07:33:19.202Z,528
2018-05-16T07:34:19.492Z,480
2018-05-16T07:35:19.513Z,492
2018-05-16T07:36:19.543Z,556
2018-05-16T07:37:19.305Z,576
2018-05-16T07:38:19.319Z,628
2018-05-16T07:39:19.345Z,620
2018-05-16T07:40:19.372Z,672
2018-05-16T07:41:20.006Z,684
2018-05-16T07:42:18.869Z,736
2018-05-16T07:43:19.201Z,764
2018-05-16T07:44:19.451Z,832
2018-05-16T07:45:19.821Z,1108
2018-05-16T07:46:19.773Z,1156
2018-05-16T07:47:19.883Z,1080
2018-05-16T07:48:19.316Z,1260
2018-05-16T07:49:19.561Z,1288
2018-05-16T07:50:19.821Z,1028
2018-05-16T07:51:20.134Z,924
2018-05-16T07:52:19.340Z,924
2018-05-16T07:53:19.673Z,832
2018-05-16T07:54:19.696Z,840
2018-05-16T07:55:19.949Z,976
2018-05-16T07:56:20.013Z,1068
2018-05-16T07:57:19.715Z,940
2018-05-16T07:58:19.720Z,984
2018-05-16T07:59:20.025Z,1184
2018-05-16T08:00:20.069Z,1296
2018-05-16T08:01:19.812Z,1096
2018-05-16T08:02:19.830Z,904
2018-05-16T08:03:20.285Z,860
2018-05-16T08:04:19.863Z,832
2018-05-16T08:05:19.870Z,780
2018-05-16T08:06:20.185Z,876
2018-05-16T08:07:20.178Z,1084
2018-05-16T08:08:20.213Z,1104
2018-05-16T08:09:20.037Z,1024
2018-05-16T08:10:20.259Z,1052
2018-05-16T08:11:20.015Z,1076
2018-05-16T08:12:20.563Z,792
2018-05-16T08:13:20.055Z,716
2018-05-16T08:14:20.113Z,696
2018-05-16T08:15:20.098Z,740
2018-05-16T08:16:20.389Z,1052
2018-05-16T08:17:20.393Z,944
2018-05-16T08:18:20.144Z,992
2018-05-16T08:19:20.455Z,1000
2018-05-16T08:20:20.219Z,924
2018-05-16T08:21:20.565Z,984
2018-05-16T08:22:20.239Z,984
2018-05-16T08:23:20.522Z,1020
2018-05-16T08:24:20.280Z,1120
2018-05-16T08:25:20.280Z,1276
2018-05-16T08:26:20.325Z,1380
2018-05-16T08:27:20.068Z,1556
2018-05-16T08:28:20.649Z,1636
2018-05-16T08:29:20.667Z,1540
2018-05-16T08:30:20.688Z,1420
2018-05-16T08:31:21.021Z,1384
2018-05-16T08:32:20.452Z,1456
2018-05-16T08:33:20.763Z,1628
2018-05-16T08:34:20.504Z,1732
2018-05-16T08:35:20.795Z,2072
2018-05-16T08:36:20.809Z,2372
2018-05-16T08:37:20.540Z,2336
2018-05-16T08:38:20.872Z,2300
2018-05-16T08:39:20.419Z,2228
2018-05-16T08:40:20.375Z,2352
2018-05-16T08:41:20.915Z,2448
2018-05-16T08:42:20.164Z,2476
2018-05-16T08:43:20.949Z,2604
2018-05-16T08:44:20.952Z,2708
2018-05-16T08:45:20.727Z,2736
2018-05-16T08:46:21.024Z,2676
2018-05-16T08:47:21.050Z,2812
2018-05-16T08:48:20.530Z,2828
2018-05-16T08:49:21.095Z,2476
2018-05-16T08:50:20.287Z,2024
2018-05-16T08:51:21.118Z,1732
2018-05-16T08:52:20.614Z,1252
2018-05-16T08:53:21.188Z,1104
2018-05-16T08:54:21.238Z,1072
2018-05-16T08:55:21.189Z,1136
2018-05-16T08:56:21.226Z,1744
2018-05-16T08:57:21.243Z,1968
2018-05-16T08:58:21.303Z,2028
2018-05-16T08:59:21.101Z,1616
2018-05-16T09:00:20.778Z,1308
2018-05-16T09:01:21.647Z,980
2018-05-16T09:02:21.382Z,892
2018-05-16T09:03:21.406Z,1092
2018-05-16T09:04:21.415Z,1372
2018-05-16T09:05:21.091Z,1352
2018-05-16T09:06:21.452Z,1368
2018-05-16T09:07:21.490Z,1664
2018-05-16T09:08:21.209Z,1724
2018-05-16T09:09:21.536Z,1664
2018-05-16T09:10:21.285Z,1500
2018-05-16T09:11:21.552Z,1444
2018-05-16T09:12:21.585Z,1368
2018-05-16T09:13:21.335Z,1256
2018-05-16T09:14:21.439Z,1192
2018-05-16T09:15:21.639Z,1236
2018-05-16T09:16:21.680Z,1316
2018-05-16T09:17:21.658Z,1296
2018-05-16T09:18:21.714Z,1260
2018-05-16T09:19:21.458Z,1252
2018-05-16T09:20:21.505Z,1288
2018-05-16T09:21:21.521Z,1268
2018-05-16T09:22:21.253Z,1336
2018-05-16T09:23:21.543Z,1420
2018-05-16T09:24:21.105Z,1364
2018-05-16T09:25:21.811Z,1188
2018-05-16T09:26:21.866Z,1184
2018-05-16T09:27:21.961Z,1316
2018-05-16T09:28:21.941Z,1236
2018-05-16T09:29:21.966Z,1096
2018-05-16T09:30:21.977Z,1076
2018-05-16T09:31:22.007Z,1112
2018-05-16T09:32:22.008Z,1096
2018-05-16T09:33:22.027Z,1236
2018-05-16T09:34:21.768Z,1256
2018-05-16T09:35:21.808Z,1348
2018-05-16T09:36:21.826Z,1584
2018-05-16T09:37:22.140Z,1540
2018-05-16T09:38:21.598Z,1820
2018-05-16T09:39:22.130Z,1740
2018-05-16T09:40:22.445Z,1764
2018-05-16T09:41:22.248Z,1816
2018-05-16T09:42:21.975Z,2136
2018-05-16T09:43:22.254Z,2172
2018-05-16T09:44:22.003Z,2084
2018-05-16T09:45:21.750Z,2304
2018-05-16T09:46:22.320Z,2616
2018-05-16T09:47:22.062Z,2500
2018-05-16T09:48:22.907Z,2824
2018-05-16T09:49:22.380Z,3232
2018-05-16T09:50:22.148Z,3236
2018-05-16T09:51:21.904Z,3272
2018-05-16T09:52:22.348Z,3364
2018-05-16T09:53:21.928Z,3696
2018-05-16T09:54:22.234Z,3812
2018-05-16T09:55:22.479Z,3460
2018-05-16T09:56:22.319Z,2620
2018-05-16T09:57:22.553Z,1872
2018-05-16T09:58:22.306Z,1504
2018-05-16T09:59:22.369Z,1400
2018-05-16T10:00:22.339Z,1488
2018-05-16T10:01:22.366Z,1852
2018-05-16T10:02:22.670Z,2428
2018-05-16T10:03:22.681Z,2708
2018-05-16T10:04:22.686Z,2668
2018-05-16T10:05:22.450Z,2228
2018-05-16T10:06:22.736Z,2008
2018-05-16T10:07:22.739Z,2188
2018-05-16T10:08:22.792Z,2260
2018-05-16T10:09:22.534Z,2200
2018-05-16T10:10:22.388Z,1992
2018-05-16T10:11:22.352Z,1844
2018-05-16T10:12:22.881Z,1768
2018-05-16T10:13:22.890Z,1808
2018-05-16T10:14:22.937Z,1892
2018-05-16T10:15:22.194Z,1740
2018-05-16T10:16:22.701Z,1804
2018-05-16T10:17:22.752Z,1924
2018-05-16T10:18:22.745Z,2052
2018-05-16T10:19:22.751Z,2092
2018-05-16T10:20:23.393Z,1792
2018-05-16T10:21:22.590Z,1436
2018-05-16T10:22:23.105Z,1256
2018-05-16T10:23:23.123Z,1116
2018-05-16T10:24:22.883Z,1092
2018-05-16T10:25:22.897Z,1192
2018-05-16T10:26:23.184Z,1176
2018-05-16T10:27:22.389Z,1096
2018-05-16T10:28:22.955Z,1116
2018-05-16T10:29:23.269Z,1232
2018-05-16T10:30:22.450Z,1276
2018-05-16T10:31:23.485Z,1244
2018-05-16T10:32:23.044Z,1240
2018-05-16T10:33:23.079Z,1284
2018-05-16T10:34:23.366Z,1304
2018-05-16T10:35:23.104Z,1360
2018-05-16T10:36:23.415Z,1436
2018-05-16T10:37:23.422Z,1500
2018-05-16T10:38:23.170Z,1560
2018-05-16T10:39:23.533Z,1612
2018-05-16T10:40:23.508Z,1680
2018-05-16T10:41:23.457Z,1816
2018-05-16T10:42:23.269Z,1764
2018-05-16T10:43:23.571Z,1844
2018-05-16T10:44:23.026Z,1956
2018-05-16T10:45:23.059Z,1984
2018-05-16T10:46:23.644Z,2048
2018-05-16T10:47:23.367Z,2072
2018-05-16T10:48:23.393Z,2156
2018-05-16T10:49:23.153Z,2100
2018-05-16T10:50:23.179Z,2184
2018-05-16T10:51:23.720Z,2596
2018-05-16T10:52:24.224Z,3508
2018-05-16T10:53:23.244Z,4372
2018-05-16T10:54:23.853Z,4616
2018-05-16T10:55:23.009Z,4880
2018-05-16T10:56:23.307Z,5776
2018-05-16T10:57:23.721Z,5532
2018-05-16T10:58:23.628Z,5044
2018-05-16T10:59:23.909Z,5428
2018-05-16T11:00:23.973Z,5136
2018-05-16T11:01:23.874Z,4840
2018-05-16T11:02:23.709Z,4336
2018-05-16T11:03:23.848Z,4556
2018-05-16T11:04:24.036Z,4628
2018-05-16T11:05:24.054Z,4480
2018-05-16T11:06:24.097Z,4636
2018-05-16T11:07:23.818Z,4704
2018-05-16T11:08:24.115Z,4416
2018-05-16T11:09:23.619Z,3852
2018-05-16T11:10:24.286Z,3756
2018-05-16T11:11:23.659Z,3492
2018-05-16T11:12:23.946Z,3760
2018-05-16T11:13:23.971Z,4192
2018-05-16T11:14:24.004Z,4324
2018-05-16T11:15:24.283Z,4720
2018-05-16T11:16:24.275Z,5140
2018-05-16T11:17:24.391Z,4772
2018-05-16T11:18:23.548Z,4348
2018-05-16T11:19:24.108Z,4308
2018-05-16T11:20:24.390Z,4552
2018-05-16T11:21:24.234Z,5508
2018-05-16T11:22:24.284Z,4980
2018-05-16T11:23:24.684Z,4760
2018-05-16T11:24:24.478Z,5128
2018-05-16T11:25:24.485Z,4960
2018-05-16T11:26:24.268Z,4516
2018-05-16T11:27:24.564Z,4348
2018-05-16T11:28:24.598Z,4152
2018-05-16T11:29:24.409Z,3916
2018-05-16T11:30:24.088Z,3564
2018-05-16T11:31:24.651Z,3584
2018-05-16T11:32:24.694Z,3892
2018-05-16T11:33:24.426Z,4008
2018-05-16T11:34:24.475Z,3820
2018-05-16T11:35:24.478Z,3340
2018-05-16T11:36:24.784Z,3400
2018-05-16T11:37:24.796Z,3660
2018-05-16T11:38:24.265Z,3844
2018-05-16T11:39:25.203Z,3952
2018-05-16T11:40:24.596Z,3640
2018-05-16T11:41:24.913Z,3528
2018-05-16T11:42:24.763Z,3632
2018-05-16T11:43:24.690Z,3184
2018-05-16T11:44:24.693Z,2452
2018-05-16T11:45:24.972Z,1796
2018-05-16T11:46:25.010Z,1400
2018-05-16T11:47:24.760Z,1264
2018-05-16T11:48:24.793Z,1228
2018-05-16T11:49:25.091Z,1300
2018-05-16T11:50:25.106Z,1456
2018-05-16T11:51:25.122Z,1700
2018-05-16T11:52:25.184Z,2004
2018-05-16T11:53:24.895Z,2452
2018-05-16T11:54:25.250Z,3472
2018-05-16T11:55:24.957Z,4408
2018-05-16T11:56:25.321Z,4200
2018-05-16T11:57:25.016Z,3304
2018-05-16T11:58:25.315Z,2652
2018-05-16T11:59:25.490Z,2224
2018-05-16T12:00:25.336Z,2008
2018-05-16T12:01:25.386Z,1956
2018-05-16T12:02:25.114Z,1980
2018-05-16T12:03:25.154Z,2108
2018-05-16T12:04:25.202Z,2280
2018-05-16T12:05:25.295Z,2408
2018-05-16T12:06:25.238Z,2684
2018-05-16T12:07:25.251Z,2656
2018-05-16T12:08:25.284Z,2652
2018-05-16T12:09:25.547Z,2872
2018-05-16T12:10:25.312Z,3616
2018-05-16T12:11:25.431Z,3908
2018-05-16T12:12:25.650Z,3792
2018-05-16T12:13:25.668Z,3568
2018-05-16T12:14:25.415Z,3344
2018-05-16T12:15:25.726Z,3708
2018-05-16T12:16:25.474Z,3504
2018-05-16T12:17:25.504Z,3100
2018-05-16T12:18:25.816Z,3084
2018-05-16T12:19:25.540Z,3304
2018-05-16T12:20:25.311Z,3596
2018-05-16T12:21:25.850Z,3444
2018-05-16T12:22:25.918Z,3352
2018-05-16T12:23:25.930Z,2828
2018-05-16T12:24:25.933Z,2516
2018-05-16T12:25:25.952Z,2556
2018-05-16T12:26:25.978Z,2776
2018-05-16T12:27:25.763Z,2764
2018-05-16T12:28:26.030Z,2568
2018-05-16T12:29:26.447Z,2268
2018-05-16T12:30:25.809Z,2192
2018-05-16T12:31:26.103Z,2396
2018-05-16T12:32:25.875Z,2704
2018-05-16T12:33:26.172Z,2884
2018-05-16T12:34:25.946Z,3204
2018-05-16T12:35:26.228Z,3452
2018-05-16T12:36:26.057Z,3504
2018-05-16T12:37:26.268Z,3308
2018-05-16T12:38:26.049Z,2948
2018-05-16T12:39:26.033Z,2696
2018-05-16T12:40:26.318Z,2800
2018-05-16T12:41:26.378Z,3240
2018-05-16T12:42:26.377Z,3620
2018-05-16T12:43:26.433Z,3492
2018-05-16T12:44:26.218Z,3036
2018-05-16T12:45:25.636Z,2836
2018-05-16T12:46:26.527Z,2916
2018-05-16T12:47:26.249Z,3168
2018-05-16T12:48:26.279Z,3132
2018-05-16T12:49:26.496Z,2932
2018-05-16T12:50:26.573Z,2708
2018-05-16T12:51:26.617Z,2448
2018-05-16T12:52:26.377Z,2836
2018-05-16T12:53:26.640Z,3144
2018-05-16T12:54:26.426Z,3372
2018-05-16T12:55:26.700Z,4432
2018-05-16T12:56:26.478Z,5088
2018-05-16T12:57:26.749Z,4776
2018-05-16T12:58:26.760Z,4116
2018-05-16T12:59:26.535Z,3656
2018-05-16T13:00:26.814Z,3840
2018-05-16T13:01:27.057Z,4284
2018-05-16T13:02:26.598Z,4776
2018-05-16T13:03:26.920Z,5060
2018-05-16T13:04:26.921Z,5280
2018-05-16T13:05:26.968Z,4328
2018-05-16T13:06:26.976Z,4128
2018-05-16T13:07:27.050Z,3540
2018-05-16T13:08:26.765Z,3440
2018-05-16T13:09:26.519Z,3224
2018-05-16T13:10:27.139Z,3048
2018-05-16T13:11:26.582Z,3072
2018-05-16T13:12:26.669Z,3284
2018-05-16T13:13:27.242Z,3316
2018-05-16T13:14:26.928Z,3260
2018-05-16T13:15:26.957Z,3564
2018-05-16T13:16:26.959Z,3832
2018-05-16T13:17:26.758Z,4072
2018-05-16T13:18:27.276Z,4580
2018-05-16T13:19:27.328Z,4840
2018-05-16T13:20:27.065Z,4728
2018-05-16T13:21:27.196Z,4100
2018-05-16T13:22:26.859Z,3944
2018-05-16T13:23:27.154Z,3860
2018-05-16T13:24:27.165Z,3760
2018-05-16T13:25:27.214Z,3692
2018-05-16T13:26:26.954Z,3632
2018-05-16T13:27:26.982Z,3964
2018-05-16T13:28:27.558Z,4352
2018-05-16T13:29:27.056Z,4288
2018-05-16T13:30:27.600Z,4036
2018-05-16T13:31:27.609Z,3996
2018-05-16T13:32:27.102Z,4160
2018-05-16T13:33:27.673Z,4152
2018-05-16T13:34:27.424Z,4356
2018-05-16T13:35:27.193Z,4168
2018-05-16T13:36:27.931Z,3596
2018-05-16T13:37:27.790Z,3036
2018-05-16T13:38:27.529Z,2692
2018-05-16T13:39:27.868Z,2424
2018-05-16T13:40:27.866Z,2552
2018-05-16T13:41:27.332Z,2900
2018-05-16T13:42:27.670Z,2912
2018-05-16T13:43:27.966Z,2880
2018-05-16T13:44:27.430Z,2888
2018-05-16T13:45:27.464Z,2884
2018-05-16T13:46:28.333Z,2980
2018-05-16T13:47:28.121Z,3068
2018-05-16T13:48:28.060Z,3344
2018-05-16T13:49:28.081Z,4076